Time;durP1;ratioP1;P1;durP2;ratioP2;P2;SDS_P1;SDS_P2;PMS_P1;PMS_P2;Temp;Humidity;BMP_temperature;BMP_pressure;BME280_temperature;BME280_humidity;BME280_pressure;Samples;Min_cycle;Max_cycle;Signal;HPM_P1;HPM_P2
2021/01/12 00:00:16;;;;;;;31.83;13.63;;;-3.10;99.90;;;;;;5091601;28;20477;-57
2021/01/12 00:02:43;;;;;;;28.10;13.10;;;-3.10;99.90;;;;;;5092124;28;20466;-56
2021/01/12 00:05:11;;;;;;;30.57;14.13;;;-3.10;99.90;;;;;;5091837;28;20449;-56
2021/01/12 00:07:37;;;;;;;32.77;14.23;;;-3.10;99.90;;;;;;5091668;28;20990;-55
2021/01/12 00:10:06;;;;;;;37.43;13.50;;;-3.10;99.90;;;;;;5091396;28;20450;-55
2021/01/12 00:12:33;;;;;;;26.87;12.40;;;-3.30;99.90;;;;;;5092141;28;20489;-55
2021/01/12 00:15:00;;;;;;;23.23;11.73;;;-3.30;99.90;;;;;;5091839;28;20489;-55
2021/01/12 00:17:26;;;;;;;30.63;12.40;;;-3.20;99.90;;;;;;5091673;28;20442;-54
2021/01/12 00:19:53;;;;;;;27.17;12.83;;;-3.10;99.90;;;;;;5091893;28;20558;-55
2021/01/12 00:22:19;;;;;;;31.80;12.97;;;-3.30;99.90;;;;;;5091753;28;20473;-55
2021/01/12 00:24:48;;;;;;;31.57;13.20;;;-3.30;99.90;;;;;;5091979;28;20446;-55
2021/01/12 00:27:16;;;;;;;36.83;13.27;;;-3.30;99.90;;;;;;5091128;28;20457;-55
2021/01/12 00:29:43;;;;;;;28.80;12.70;;;-3.40;99.90;;;;;;5090915;28;20861;-56
2021/01/12 00:32:15;;;;;;;32.50;13.13;;;-3.30;99.90;;;;;;5091496;28;20534;-55
2021/01/12 00:34:41;;;;;;;30.23;13.80;;;-3.30;99.90;;;;;;5086281;28;20499;-55
2021/01/12 00:37:08;;;;;;;31.00;13.67;;;-3.30;99.90;;;;;;5091172;28;20484;-56
2021/01/12 00:39:34;;;;;;;35.50;11.90;;;-3.20;99.90;;;;;;5091305;28;20519;-55
2021/01/12 00:42:01;;;;;;;29.90;12.67;;;-3.00;99.90;;;;;;5090838;28;20470;-55
2021/01/12 00:44:29;;;;;;;25.30;12.00;;;-3.00;99.90;;;;;;5091443;28;20483;-56
2021/01/12 00:46:56;;;;;;;30.00;12.80;;;-3.30;99.90;;;;;;5091049;28;20442;-55
2021/01/12 00:49:24;;;;;;;25.40;12.80;;;-3.20;99.90;;;;;;5070948;28;20435;-56
2021/01/12 00:51:52;;;;;;;32.80;14.83;;;-3.20;99.90;;;;;;5085171;28;20584;-55
2021/01/12 00:54:22;;;;;;;28.40;12.60;;;-3.40;99.90;;;;;;5091178;28;20449;-55
2021/01/12 00:56:48;;;;;;;34.23;12.90;;;-3.40;99.90;;;;;;5091445;28;20453;-55
2021/01/12 00:59:15;;;;;;;32.50;14.37;;;-3.30;99.90;;;;;;5091310;28;20484;-55
2021/01/12 01:01:42;;;;;;;29.13;13.33;;;-3.10;99.90;;;;;;5091619;28;20469;-55
2021/01/12 01:04:10;;;;;;;30.30;13.70;;;-3.10;99.90;;;;;;5090458;28;20958;-56
2021/01/12 01:06:36;;;;;;;29.53;12.33;;;-3.10;99.90;;;;;;5090980;28;20453;-56
2021/01/12 01:09:03;;;;;;;29.80;12.40;;;-3.10;99.90;;;;;;5090052;28;20457;-55
2021/01/12 01:11:30;;;;;;;28.90;11.90;;;-3.00;99.90;;;;;;5090497;28;20481;-55
2021/01/12 01:13:57;;;;;;;32.87;13.43;;;-3.00;99.90;;;;;;5090844;28;20442;-56
2021/01/12 01:16:31;;;;;;;30.40;13.40;;;-3.10;99.90;;;;;;5090944;28;20463;-55
2021/01/12 01:18:58;;;;;;;31.43;12.20;;;-3.20;99.90;;;;;;5091483;28;20631;-55
2021/01/12 01:21:24;;;;;;;26.33;11.87;;;-3.30;99.90;;;;;;5091985;28;20526;-56
2021/01/12 01:23:51;;;;;;;25.77;11.50;;;-3.20;99.90;;;;;;5091467;28;20446;-56
2021/01/12 01:26:18;;;;;;;28.37;12.83;;;-3.20;99.90;;;;;;5090450;28;20795;-55
2021/01/12 01:28:44;;;;;;;31.10;13.00;;;-3.20;99.90;;;;;;5090600;28;20453;-55
2021/01/12 01:31:11;;;;;;;27.83;12.30;;;-3.30;99.90;;;;;;5091084;28;20454;-55
2021/01/12 01:33:37;;;;;;;33.57;13.50;;;-3.30;99.90;;;;;;5091489;28;20979;-55
2021/01/12 01:36:09;;;;;;;30.50;13.60;;;-3.20;99.90;;;;;;5091514;28;20493;-55
2021/01/12 01:38:35;;;;;;;34.43;13.43;;;-3.10;99.90;;;;;;5091393;28;20482;-55
2021/01/12 01:41:03;;;;;;;31.73;13.90;;;-3.00;99.90;;;;;;5091300;28;20507;-55
2021/01/12 01:43:29;;;;;;;26.10;12.80;;;-3.10;99.90;;;;;;5093190;28;20458;-56
2021/01/12 01:45:56;;;;;;;26.47;12.10;;;-3.20;99.90;;;;;;5093468;28;20450;-56
2021/01/12 01:48:22;;;;;;;27.10;13.00;;;-3.30;99.90;;;;;;5091430;28;20447;-57
2021/01/12 01:50:49;;;;;;;29.80;13.40;;;-3.00;99.90;;;;;;5090203;28;20454;-56
2021/01/12 01:53:17;;;;;;;33.10;13.50;;;-2.90;99.90;;;;;;5091290;28;20474;-56
2021/01/12 01:55:45;;;;;;;29.60;12.40;;;-2.90;99.90;;;;;;5091090;28;20453;-56
2021/01/12 01:58:12;;;;;;;25.50;11.13;;;-3.00;99.90;;;;;;5090869;28;20454;-56
2021/01/12 02:00:38;;;;;;;25.10;11.80;;;-3.10;99.90;;;;;;5090353;28;20460;-56
2021/01/12 02:03:13;;;;;;;26.20;13.30;;;-3.10;99.90;;;;;;5091010;28;20457;-56
2021/01/12 02:05:42;;;;;;;28.70;12.27;;;-3.10;99.90;;;;;;5090735;28;20452;-55
2021/01/12 02:08:12;;;;;;;31.97;14.07;;;-3.10;99.90;;;;;;5090913;28;20458;-56
2021/01/12 02:10:43;;;;;;;31.27;13.70;;;-3.20;99.90;;;;;;5090509;28;20476;-56
2021/01/12 02:13:14;;;;;;;31.00;13.33;;;-3.20;99.90;;;;;;5090789;28;20539;-56
2021/01/12 02:15:42;;;;;;;32.60;13.83;;;-3.10;99.90;;;;;;5090505;28;20442;-56
2021/01/12 02:18:09;;;;;;;26.67;12.57;;;-3.10;99.90;;;;;;5090651;28;20450;-56
2021/01/12 02:20:36;;;;;;;26.67;12.57;;;-3.10;99.90;;;;;;5093471;28;20450;-56
2021/01/12 02:23:06;;;;;;;27.80;12.43;;;-3.10;99.90;;;;;;5094569;28;20473;-57
2021/01/12 02:25:36;;;;;;;24.90;12.47;;;-3.10;99.90;;;;;;5094856;28;20524;-56
2021/01/12 02:28:06;;;;;;;28.00;12.50;;;-3.20;99.90;;;;;;5094773;28;20548;-56
2021/01/12 02:30:33;;;;;;;30.23;12.43;;;-3.20;99.90;;;;;;5094023;28;20533;-56
2021/01/12 02:32:59;;;;;;;24.33;11.97;;;-3.00;99.90;;;;;;5093590;28;20461;-56
2021/01/12 02:35:28;;;;;;;30.27;13.73;;;-3.00;99.90;;;;;;5094509;28;20942;-56
2021/01/12 02:37:55;;;;;;;26.90;12.87;;;-3.00;99.90;;;;;;5094076;28;20450;-56
2021/01/12 02:40:22;;;;;;;27.13;12.60;;;-3.00;99.90;;;;;;5093973;28;21260;-56
2021/01/12 02:42:50;;;;;;;27.37;12.73;;;-3.20;99.90;;;;;;5094143;28;20518;-56
2021/01/12 02:45:17;;;;;;;33.10;13.83;;;-3.10;99.90;;;;;;5077532;28;20450;-55
2021/01/12 02:47:44;;;;;;;29.00;13.27;;;-3.30;99.90;;;;;;5093706;28;20445;-55
2021/01/12 02:50:12;;;;;;;27.33;12.30;;;-3.40;99.90;;;;;;5094394;28;20472;-55
2021/01/12 02:52:40;;;;;;;40.30;11.97;;;-3.40;99.90;;;;;;5093792;28;20917;-55
2021/01/12 02:55:08;;;;;;;27.27;11.93;;;-3.10;99.90;;;;;;5094636;28;20528;-55
2021/01/12 02:57:35;;;;;;;23.23;11.30;;;-2.80;99.90;;;;;;5074100;28;21040;-55
2021/01/12 03:00:05;;;;;;;26.77;10.87;;;-2.90;99.90;;;;;;5093133;28;20477;-56
2021/01/12 03:02:31;;;;;;;27.47;11.40;;;-2.70;99.90;;;;;;5093542;28;20465;-55
2021/01/12 03:04:58;;;;;;;21.00;10.07;;;-2.90;99.90;;;;;;5094186;28;20449;-55
2021/01/12 03:07:24;;;;;;;18.00;9.50;;;-2.80;99.90;;;;;;5093634;28;20442;-55
2021/01/12 03:09:51;;;;;;;21.00;10.67;;;-2.70;99.90;;;;;;5093282;28;20869;-56
2021/01/12 03:12:17;;;;;;;25.23;10.17;;;-2.80;99.90;;;;;;5094434;28;20492;-55
2021/01/12 03:14:45;;;;;;;26.60;11.37;;;-2.90;99.90;;;;;;5094431;28;20853;-56
2021/01/12 03:17:13;;;;;;;22.50;10.90;;;-2.90;99.90;;;;;;5093686;28;20452;-56
2021/01/12 03:19:39;;;;;;;22.50;10.90;;;-3.10;99.90;;;;;;5093171;28;20487;-56
2021/01/12 03:22:06;;;;;;;24.47;11.73;;;-3.10;99.90;;;;;;5093743;28;20473;-56
2021/01/12 03:24:32;;;;;;;21.87;10.63;;;-3.30;99.90;;;;;;5093882;28;20457;-56
2021/01/12 03:26:59;;;;;;;17.17;9.37;;;-3.30;99.90;;;;;;5093706;28;20457;-56
2021/01/12 03:29:25;;;;;;;18.67;9.50;;;-3.40;99.90;;;;;;5093547;28;20989;-56
2021/01/12 03:31:52;;;;;;;21.73;10.00;;;-3.20;99.90;;;;;;5097530;22;20502;-52
2021/01/12 03:34:19;;;;;;;21.00;10.20;;;-3.20;99.90;;;;;;5072624;28;20451;-52
2021/01/12 03:36:46;;;;;;;23.40;10.90;;;-3.10;99.90;;;;;;5072780;28;20447;-52
2021/01/12 03:39:12;;;;;;;29.30;10.43;;;-3.30;99.90;;;;;;5072229;28;21002;-52
2021/01/12 03:41:39;;;;;;;23.83;10.17;;;-3.40;99.90;;;;;;5057472;28;20985;-51
2021/01/12 03:44:09;;;;;;;23.37;11.33;;;-3.40;99.90;;;;;;5052975;28;20451;-52
2021/01/12 03:46:35;;;;;;;28.40;12.27;;;-3.30;99.90;;;;;;5052778;28;20455;-52
2021/01/12 03:49:06;;;;;;;32.07;12.17;;;-3.40;99.90;;;;;;5052756;28;20992;-52
2021/01/12 03:51:33;;;;;;;24.00;11.37;;;-3.40;99.90;;;;;;5052363;28;20517;-52
2021/01/12 03:53:59;;;;;;;27.47;11.60;;;-3.30;99.90;;;;;;5052465;28;20964;-52
2021/01/12 03:56:26;;;;;;;25.80;11.53;;;-3.20;99.90;;;;;;5052496;28;20518;-52
2021/01/12 03:58:52;;;;;;;24.30;11.23;;;-3.30;99.90;;;;;;5052235;28;20541;-52
2021/01/12 04:01:19;;;;;;;25.37;11.47;;;-3.30;99.90;;;;;;5052364;28;20472;-52
2021/01/12 04:03:45;;;;;;;23.17;11.40;;;-3.20;99.90;;;;;;5051594;28;20815;-52
2021/01/12 04:06:13;;;;;;;21.40;10.33;;;-2.90;99.90;;;;;;5052036;28;20452;-52
2021/01/12 04:08:42;;;;;;;25.37;10.40;;;-2.80;99.90;;;;;;5051419;28;20468;-52
2021/01/12 04:11:09;;;;;;;25.70;10.50;;;-2.90;99.90;;;;;;5051950;28;20480;-51
2021/01/12 04:13:35;;;;;;;23.57;11.60;;;-3.00;99.90;;;;;;5052229;28;20440;-52
2021/01/12 04:16:03;;;;;;;25.73;11.43;;;-3.10;99.90;;;;;;5052101;28;20443;-52
2021/01/12 04:18:30;;;;;;;25.97;11.10;;;-3.10;99.90;;;;;;5051894;28;20444;-52
2021/01/12 04:20:56;;;;;;;26.53;12.77;;;-3.20;99.90;;;;;;5051876;28;20533;-52
2021/01/12 04:23:23;;;;;;;21.23;10.90;;;-3.40;99.90;;;;;;5052035;28;20444;-52
2021/01/12 04:25:50;;;;;;;24.00;10.00;;;-3.50;99.90;;;;;;5051787;28;21062;-52
2021/01/12 04:28:17;;;;;;;20.00;10.23;;;-3.50;99.90;;;;;;5051554;28;20822;-52
2021/01/12 04:30:43;;;;;;;22.43;11.40;;;-3.40;99.90;;;;;;5051431;28;20471;-53
2021/01/12 04:33:10;;;;;;;18.50;11.30;;;-3.30;99.90;;;;;;5051295;28;20459;-53
2021/01/12 04:35:36;;;;;;;27.50;10.50;;;-3.30;99.90;;;;;;5051709;28;20436;-52
2021/01/12 04:38:03;;;;;;;20.60;10.40;;;-3.10;99.90;;;;;;5050827;28;20470;-53
2021/01/12 04:40:30;;;;;;;20.77;11.07;;;-3.20;99.90;;;;;;5050324;28;20499;-52
2021/01/12 04:42:58;;;;;;;20.53;10.17;;;-3.10;99.90;;;;;;5050681;28;20448;-53
2021/01/12 04:45:25;;;;;;;23.63;10.90;;;-3.00;99.90;;;;;;5047011;28;20455;-52
2021/01/12 04:47:51;;;;;;;25.97;11.97;;;-3.00;99.90;;;;;;5051367;28;20502;-52
2021/01/12 04:50:18;;;;;;;21.20;10.90;;;-3.10;99.90;;;;;;5051426;28;20556;-52
2021/01/12 04:52:46;;;;;;;22.53;10.60;;;-3.20;99.90;;;;;;5051537;28;20836;-52
2021/01/12 04:55:14;;;;;;;17.73;10.20;;;-3.20;99.90;;;;;;5051636;28;20501;-52
2021/01/12 04:57:40;;;;;;;18.23;9.60;;;-3.20;99.90;;;;;;5051503;28;20501;-52
2021/01/12 05:00:13;;;;;;;24.40;10.17;;;-3.20;99.90;;;;;;5050967;28;21015;-52
2021/01/12 05:02:40;;;;;;;20.93;10.23;;;-3.20;99.90;;;;;;5050953;28;20547;-52
2021/01/12 05:05:08;;;;;;;18.43;10.60;;;-3.10;99.90;;;;;;5051231;28;20451;-52
2021/01/12 05:07:38;;;;;;;20.70;10.50;;;-2.90;99.90;;;;;;5051125;28;20534;-52
2021/01/12 05:10:14;;;;;;;25.57;11.13;;;-3.00;99.90;;;;;;5050826;28;20962;-51
2021/01/12 05:12:41;;;;;;;31.97;11.37;;;-3.00;99.90;;;;;;5051207;28;20501;-51
2021/01/12 05:15:11;;;;;;;20.60;10.47;;;-3.10;99.90;;;;;;5049860;28;20451;-51
2021/01/12 05:17:39;;;;;;;18.73;9.90;;;-3.00;99.90;;;;;;5051072;28;20564;-51
2021/01/12 05:20:07;;;;;;;19.80;10.03;;;-2.80;99.90;;;;;;5050463;28;20486;-52
2021/01/12 05:22:41;;;;;;;22.40;10.07;;;-2.90;99.90;;;;;;5051065;28;20454;-51
2021/01/12 05:25:20;;;;;;;21.60;10.20;;;-2.70;99.90;;;;;;5045653;28;20547;-52
2021/01/12 05:27:52;;;;;;;23.50;10.63;;;-2.60;99.90;;;;;;5045176;28;20448;-52
2021/01/12 05:30:26;;;;;;;22.70;11.60;;;-2.90;99.90;;;;;;5048241;28;20515;-52
2021/01/12 05:32:53;;;;;;;29.00;11.27;;;-2.90;99.90;;;;;;5048856;28;20455;-51
2021/01/12 05:35:20;;;;;;;22.23;12.00;;;-2.90;99.90;;;;;;5050413;28;20823;-52
2021/01/12 05:37:46;;;;;;;21.03;10.73;;;-3.00;99.90;;;;;;5050152;28;20448;-52
2021/01/12 05:40:14;;;;;;;23.10;11.07;;;-3.10;99.90;;;;;;5048395;28;20496;-52
2021/01/12 05:42:41;;;;;;;27.10;12.30;;;-3.00;99.90;;;;;;5047383;28;20525;-53
2021/01/12 05:45:09;;;;;;;21.50;11.47;;;-3.00;99.90;;;;;;5050552;28;20538;-52
2021/01/12 05:47:36;;;;;;;19.97;10.80;;;-2.90;99.90;;;;;;5049484;28;20458;-52
2021/01/12 05:50:04;;;;;;;18.93;11.07;;;-2.90;99.90;;;;;;5049919;28;20455;-51
2021/01/12 05:52:46;;;;;;;21.10;10.47;;;-2.90;99.90;;;;;;5050323;28;20895;-51
2021/01/12 05:55:15;;;;;;;29.60;12.53;;;-3.00;99.90;;;;;;5048818;28;20455;-51
2021/01/12 05:57:48;;;;;;;27.07;10.90;;;-3.00;99.90;;;;;;5050379;28;20813;-51
2021/01/12 06:00:16;;;;;;;21.53;10.40;;;-2.90;99.90;;;;;;5050515;28;20486;-51
2021/01/12 06:02:47;;;;;;;25.40;11.00;;;-2.90;99.90;;;;;;5050613;28;20451;-51
2021/01/12 06:05:14;;;;;;;22.70;10.67;;;-3.00;99.90;;;;;;5044512;28;20484;-51
2021/01/12 06:07:40;;;;;;;23.17;11.13;;;-3.10;99.90;;;;;;5030574;28;20459;-51
2021/01/12 06:10:13;;;;;;;28.87;12.30;;;-3.10;99.90;;;;;;5036859;28;20467;-51
2021/01/12 06:12:48;;;;;;;26.43;11.77;;;-3.20;99.90;;;;;;5050341;28;20983;-51
2021/01/12 06:15:17;;;;;;;24.73;11.13;;;-3.30;99.90;;;;;;5050373;28;20991;-51
2021/01/12 06:17:45;;;;;;;24.13;10.30;;;-3.30;99.90;;;;;;5050550;28;20448;-51
2021/01/12 06:20:16;;;;;;;27.87;10.90;;;-3.10;99.90;;;;;;5049547;28;20989;-51
2021/01/12 06:22:51;;;;;;;22.23;11.07;;;-3.00;99.90;;;;;;5048803;28;20476;-51
2021/01/12 06:25:19;;;;;;;31.93;12.40;;;-3.10;99.90;;;;;;5049478;28;20822;-52
2021/01/12 06:27:47;;;;;;;23.50;10.20;;;-3.20;99.90;;;;;;5049684;28;20879;-51
2021/01/12 06:30:17;;;;;;;30.67;10.00;;;-3.20;99.90;;;;;;5049776;28;20479;-51
2021/01/12 06:32:46;;;;;;;26.77;11.03;;;-3.00;99.90;;;;;;5050087;28;20498;-51
2021/01/12 06:35:13;;;;;;;19.40;9.90;;;-3.00;99.90;;;;;;5050151;28;20478;-51
2021/01/12 06:37:42;;;;;;;22.47;11.53;;;-3.10;99.90;;;;;;5049572;28;20475;-51
2021/01/12 06:40:10;;;;;;;25.70;11.37;;;-3.00;99.90;;;;;;5049471;28;20480;-51
2021/01/12 06:42:38;;;;;;;22.87;10.50;;;-3.00;99.90;;;;;;5049344;28;20460;-51
2021/01/12 06:45:08;;;;;;;22.83;10.87;;;-2.90;99.90;;;;;;5049742;28;20814;-51
2021/01/12 06:47:35;;;;;;;29.43;11.13;;;-3.00;99.90;;;;;;5046134;28;20471;-51
2021/01/12 06:50:05;;;;;;;22.37;11.37;;;-3.20;99.90;;;;;;5042030;28;20449;-51
2021/01/12 06:52:38;;;;;;;22.43;10.40;;;-3.20;99.90;;;;;;5048909;28;20448;-51
2021/01/12 06:55:07;;;;;;;21.17;10.77;;;-3.00;99.90;;;;;;5049816;28;20454;-51
2021/01/12 06:57:33;;;;;;;22.80;10.17;;;-3.10;99.90;;;;;;5036334;28;20448;-51
2021/01/12 07:00:00;;;;;;;24.20;11.00;;;-3.10;99.90;;;;;;5049678;28;20872;-51
2021/01/12 07:02:28;;;;;;;21.37;10.13;;;-3.00;99.90;;;;;;5050126;28;20454;-51
2021/01/12 07:05:13;;;;;;;24.43;11.17;;;-3.00;99.90;;;;;;5050274;28;20510;-51
2021/01/12 07:07:41;;;;;;;20.60;9.83;;;-2.80;99.90;;;;;;5053372;28;20459;-51
2021/01/12 07:10:10;;;;;;;18.50;9.50;;;-2.90;99.90;;;;;;5053280;28;20467;-51
2021/01/12 07:12:37;;;;;;;20.43;9.80;;;-2.80;99.90;;;;;;5053455;28;20455;-51
2021/01/12 07:15:07;;;;;;;21.33;9.50;;;-2.90;99.90;;;;;;5053354;28;20448;-51
2021/01/12 07:17:38;;;;;;;20.03;9.27;;;-2.60;99.90;;;;;;5053402;28;20455;-51
2021/01/12 07:20:07;;;;;;;23.27;9.70;;;-2.50;99.90;;;;;;5052570;28;20484;-51
2021/01/12 07:22:37;;;;;;;21.33;9.90;;;-2.60;99.90;;;;;;5053126;28;20448;-51
2021/01/12 07:25:06;;;;;;;19.47;9.97;;;-2.70;99.90;;;;;;5053365;28;20458;-51
2021/01/12 07:27:32;;;;;;;19.10;9.70;;;-2.50;99.90;;;;;;5052997;28;20447;-51
2021/01/12 07:30:03;;;;;;;21.93;9.43;;;-2.30;99.90;;;;;;5052737;28;20942;-51
2021/01/12 07:32:32;;;;;;;25.40;9.67;;;-2.40;99.90;;;;;;5053624;28;20447;-50
2021/01/12 07:35:02;;;;;;;20.93;9.07;;;-2.30;99.90;;;;;;5053501;28;20449;-51
2021/01/12 07:37:34;;;;;;;17.60;9.00;;;-2.40;99.90;;;;;;5054164;28;20839;-51
2021/01/12 07:40:03;;;;;;;19.43;9.00;;;-2.30;99.90;;;;;;5052670;28;20475;-51
2021/01/12 07:42:29;;;;;;;27.20;9.87;;;-2.30;99.90;;;;;;5052916;28;20673;-51
2021/01/12 07:44:56;;;;;;;17.10;10.03;;;-2.30;99.90;;;;;;5052878;28;20448;-51
2021/01/12 07:47:23;;;;;;;20.70;9.17;;;-2.30;99.90;;;;;;5052981;28;20447;-51
2021/01/12 07:49:50;;;;;;;23.43;10.07;;;-2.30;99.90;;;;;;5052568;28;20447;-51
2021/01/12 07:52:20;;;;;;;18.30;9.83;;;-2.30;99.90;;;;;;5052779;28;20462;-50
2021/01/12 07:54:47;;;;;;;25.63;10.47;;;-2.30;99.90;;;;;;5053005;28;20447;-52
2021/01/12 07:57:16;;;;;;;22.97;10.47;;;-2.30;99.90;;;;;;5052779;28;20455;-52
2021/01/12 07:59:43;;;;;;;19.13;10.10;;;-2.20;99.90;;;;;;5052754;28;20483;-52
2021/01/12 08:02:11;;;;;;;16.13;9.57;;;-2.10;99.90;;;;;;5052172;28;20471;-52
2021/01/12 08:04:39;;;;;;;21.80;10.27;;;-2.00;99.90;;;;;;5052409;28;20541;-52
2021/01/12 08:07:07;;;;;;;17.97;9.63;;;-2.00;99.90;;;;;;5052244;28;20598;-52
2021/01/12 08:09:37;;;;;;;22.13;9.53;;;-2.00;99.90;;;;;;5050901;28;20499;-51
2021/01/12 08:12:05;;;;;;;25.70;9.60;;;-1.70;99.90;;;;;;5052333;28;20475;-51
2021/01/12 08:14:34;;;;;;;22.70;11.00;;;-1.70;99.90;;;;;;5052018;28;21013;-51
2021/01/12 08:17:05;;;;;;;19.40;10.10;;;-1.70;99.90;;;;;;5051345;28;20834;-52
2021/01/12 08:19:32;;;;;;;24.20;10.63;;;-1.60;99.90;;;;;;5051751;28;21082;-51
2021/01/12 08:21:58;;;;;;;23.10;10.07;;;-1.60;99.90;;;;;;5052298;28;20525;-52
2021/01/12 08:24:27;;;;;;;26.30;10.80;;;-1.50;99.90;;;;;;5051825;28;20451;-52
2021/01/12 08:26:54;;;;;;;19.60;9.73;;;-1.60;99.90;;;;;;5052094;28;20523;-52
2021/01/12 08:29:23;;;;;;;18.43;9.20;;;-1.40;99.90;;;;;;5051795;28;20523;-52
2021/01/12 08:31:58;;;;;;;25.93;10.20;;;-1.50;99.90;;;;;;5038820;28;20939;-51
2021/01/12 08:34:26;;;;;;;23.23;10.03;;;-1.50;99.90;;;;;;5051858;28;21016;-52
2021/01/12 08:36:56;;;;;;;19.57;9.43;;;-1.60;99.90;;;;;;5048546;28;20440;-52
2021/01/12 08:39:24;;;;;;;25.13;10.20;;;-1.60;99.90;;;;;;5051396;28;20492;-52
2021/01/12 08:41:52;;;;;;;21.90;10.30;;;-1.40;99.90;;;;;;5051735;28;20472;-51
2021/01/12 08:44:20;;;;;;;23.60;9.17;;;-1.60;99.90;;;;;;5051730;28;20585;-51
2021/01/12 08:46:47;;;;;;;25.00;9.23;;;-1.50;99.90;;;;;;5051877;28;20874;-52
2021/01/12 08:49:28;;;;;;;18.57;8.90;;;-1.60;99.90;;;;;;5045281;28;20459;-52
2021/01/12 08:51:55;;;;;;;16.40;8.53;;;-1.50;99.90;;;;;;5048375;28;20474;-52
2021/01/12 08:54:23;;;;;;;19.47;8.13;;;-1.50;99.90;;;;;;5051476;28;20941;-52
2021/01/12 08:56:55;;;;;;;21.50;8.97;;;-1.40;99.90;;;;;;5038337;28;20558;-52
2021/01/12 08:59:28;;;;;;;19.50;9.30;;;-1.50;99.90;;;;;;5046371;28;20476;-52
2021/01/12 09:01:56;;;;;;;17.60;8.70;;;-1.50;99.90;;;;;;5040792;28;20545;-52
2021/01/12 09:04:24;;;;;;;21.27;9.27;;;-1.40;99.90;;;;;;5039438;28;20483;-52
2021/01/12 09:07:01;;;;;;;20.60;9.47;;;-1.50;99.90;;;;;;5050961;28;20440;-52
2021/01/12 09:09:27;;;;;;;18.40;8.80;;;-1.50;99.90;;;;;;5051067;28;20448;-52
2021/01/12 09:11:58;;;;;;;20.10;9.07;;;-1.50;99.90;;;;;;5045008;28;20546;-52
2021/01/12 09:14:26;;;;;;;16.57;8.23;;;-1.50;99.90;;;;;;5050804;28;20935;-52
2021/01/12 09:16:58;;;;;;;15.37;9.10;;;-1.30;99.90;;;;;;5049593;28;21004;-51
2021/01/12 09:19:34;;;;;;;17.67;9.00;;;-1.30;99.90;;;;;;5050285;28;20475;-52
2021/01/12 09:22:15;;;;;;;18.53;8.70;;;-1.50;99.90;;;;;;5039616;28;20543;-52
2021/01/12 09:24:47;;;;;;;17.87;8.17;;;-1.20;99.90;;;;;;5031533;28;20535;-52
2021/01/12 09:27:21;;;;;;;21.47;9.10;;;-1.30;99.90;;;;;;5041738;28;20530;-52
2021/01/12 09:29:47;;;;;;;17.87;8.60;;;-1.30;99.90;;;;;;5047959;28;20449;-52
2021/01/12 09:32:25;;;;;;;22.40;9.70;;;-1.20;99.90;;;;;;5050817;28;20455;-52
2021/01/12 09:34:53;;;;;;;19.42;12.02;;;-1.10;99.90;;;;;;5048347;28;20790;-52
2021/01/12 09:37:20;;;;;;;20.90;10.07;;;-1.10;99.90;;;;;;5050453;28;20812;-51
2021/01/12 09:39:51;;;;;;;22.67;10.90;;;-1.10;99.90;;;;;;5049938;28;20515;-51
2021/01/12 09:42:24;;;;;;;23.43;11.53;;;-0.80;99.90;;;;;;5050394;28;20450;-51
2021/01/12 09:44:51;;;;;;;23.93;12.30;;;-0.70;99.90;;;;;;5049895;28;20457;-51
2021/01/12 09:47:17;;;;;;;26.37;11.37;;;-0.80;99.90;;;;;;5050362;28;20458;-51
2021/01/12 09:49:44;;;;;;;27.20;12.60;;;-0.80;99.90;;;;;;5039331;28;20450;-51
2021/01/12 09:52:11;;;;;;;31.10;13.63;;;-0.50;99.90;;;;;;5030493;28;20483;-51
2021/01/12 09:54:41;;;;;;;23.17;11.33;;;-0.90;99.90;;;;;;5030297;28;20870;-50
2021/01/12 09:57:08;;;;;;;24.57;11.10;;;-1.10;99.90;;;;;;5030542;28;20527;-50
2021/01/12 09:59:35;;;;;;;20.73;10.53;;;-1.10;99.90;;;;;;5030095;28;20478;-52
2021/01/12 10:02:02;;;;;;;26.00;10.60;;;-1.10;99.90;;;;;;5044882;28;20519;-51
2021/01/12 10:04:28;;;;;;;20.23;9.03;;;-1.20;99.90;;;;;;5039323;28;20450;-51
2021/01/12 10:06:56;;;;;;;17.27;8.63;;;-1.20;99.90;;;;;;5040376;28;20450;-51
2021/01/12 10:09:24;;;;;;;15.43;8.60;;;-1.10;99.90;;;;;;5046814;28;21384;-51
2021/01/12 10:11:50;;;;;;;23.40;8.63;;;-0.90;99.90;;;;;;5049835;28;20534;-51
2021/01/12 10:14:19;;;;;;;15.47;7.67;;;-0.70;99.90;;;;;;5050210;28;20438;-51
2021/01/12 10:16:46;;;;;;;18.47;8.87;;;-0.60;99.90;;;;;;5049993;28;20454;-52
2021/01/12 10:19:12;;;;;;;20.77;8.77;;;-0.50;99.90;;;;;;5049610;28;20481;-51
2021/01/12 10:21:39;;;;;;;22.43;8.53;;;-0.50;99.90;;;;;;5050035;28;20495;-52
2021/01/12 10:24:06;;;;;;;20.70;8.57;;;-0.20;99.90;;;;;;5041287;28;20449;-51
2021/01/12 10:26:34;;;;;;;14.33;7.67;;;-0.20;99.90;;;;;;5029695;28;20455;-51
2021/01/12 10:29:04;;;;;;;17.20;8.30;;;0.10;99.90;;;;;;5029665;28;20480;-51
2021/01/12 10:31:33;;;;;;;22.07;8.40;;;0.10;99.90;;;;;;5029863;28;20872;-52
2021/01/12 10:33:59;;;;;;;17.03;8.10;;;0.20;99.90;;;;;;5029855;28;20457;-51
2021/01/12 10:36:26;;;;;;;11.17;6.60;;;0.00;99.90;;;;;;5029992;28;20445;-52
2021/01/12 10:38:52;;;;;;;14.70;8.20;;;0.00;99.90;;;;;;5029543;28;20455;-52
2021/01/12 10:41:19;;;;;;;14.30;7.53;;;-0.10;99.90;;;;;;5046195;28;20480;-51
2021/01/12 10:43:49;;;;;;;13.27;6.97;;;0.00;99.90;;;;;;5053731;28;20457;-51
2021/01/12 10:46:17;;;;;;;14.00;7.07;;;-0.10;99.90;;;;;;5053698;28;20453;-51
2021/01/12 10:48:43;;;;;;;14.00;6.40;;;0.10;99.90;;;;;;5053367;28;20444;-51
2021/01/12 10:51:10;;;;;;;17.37;7.13;;;0.20;99.90;;;;;;5053540;28;20466;-51
2021/01/12 10:53:37;;;;;;;18.50;7.30;;;0.10;99.90;;;;;;5053378;28;20452;-51
2021/01/12 10:56:04;;;;;;;14.70;6.73;;;0.00;99.90;;;;;;5053310;28;21019;-51
2021/01/12 10:58:30;;;;;;;14.77;6.43;;;0.00;99.90;;;;;;5053004;28;20456;-51
2021/01/12 11:00:59;;;;;;;15.10;5.83;;;0.10;99.90;;;;;;5053146;28;20839;-52
2021/01/12 11:03:27;;;;;;;14.50;7.10;;;0.20;99.90;;;;;;5053162;28;20455;-52
2021/01/12 11:05:54;;;;;;;14.17;6.90;;;0.20;99.90;;;;;;5053381;28;20445;-52
2021/01/12 11:08:22;;;;;;;12.67;6.77;;;0.20;99.90;;;;;;5053089;28;20545;-51
2021/01/12 11:10:48;;;;;;;12.90;5.63;;;0.20;99.90;;;;;;5052936;28;20501;-51
2021/01/12 11:13:15;;;;;;;9.87;5.50;;;0.10;99.90;;;;;;5052759;28;20447;-51
2021/01/12 11:15:45;;;;;;;11.20;5.87;;;0.20;99.90;;;;;;5053426;28;20449;-51
2021/01/12 11:18:12;;;;;;;13.67;6.40;;;0.20;99.90;;;;;;5053541;28;20943;-51
2021/01/12 11:20:41;;;;;;;11.17;5.60;;;0.20;99.90;;;;;;5053811;28;20494;-51
2021/01/12 11:23:07;;;;;;;17.43;6.77;;;0.10;99.90;;;;;;5053267;28;20474;-51
2021/01/12 11:25:35;;;;;;;16.00;6.27;;;0.20;99.90;;;;;;5053368;28;20455;-51
2021/01/12 11:28:01;;;;;;;11.87;6.00;;;0.10;99.90;;;;;;5053127;28;20905;-50
2021/01/12 11:30:28;;;;;;;16.13;6.67;;;0.10;99.90;;;;;;5050529;28;20547;-52
2021/01/12 11:32:57;;;;;;;13.37;7.57;;;0.00;99.90;;;;;;5044052;28;20473;-52
2021/01/12 11:35:26;;;;;;;20.00;7.50;;;0.10;99.90;;;;;;5051799;28;20462;-52
2021/01/12 11:37:53;;;;;;;15.67;7.63;;;0.20;99.90;;;;;;5051818;28;20449;-52
2021/01/12 11:40:19;;;;;;;18.83;8.57;;;0.20;99.90;;;;;;5051442;28;20990;-52
2021/01/12 11:42:46;;;;;;;17.43;7.80;;;0.10;99.90;;;;;;5052042;28;20447;-52
2021/01/12 11:45:14;;;;;;;16.50;7.57;;;0.10;99.90;;;;;;5052546;28;20572;-52
2021/01/12 11:47:40;;;;;;;20.53;9.67;;;0.20;99.90;;;;;;5052108;28;20850;-52
2021/01/12 11:50:09;;;;;;;20.43;8.00;;;0.20;99.90;;;;;;5052389;28;20446;-51
2021/01/12 11:52:36;;;;;;;18.80;7.60;;;0.30;99.90;;;;;;5050943;28;20508;-52
2021/01/12 11:55:05;;;;;;;24.57;8.00;;;0.20;99.90;;;;;;5052080;28;20487;-52
2021/01/12 11:57:32;;;;;;;26.77;8.40;;;0.20;99.90;;;;;;5052041;28;20450;-51
2021/01/12 11:59:58;;;;;;;15.30;6.80;;;0.20;99.90;;;;;;5051434;28;20485;-52
2021/01/12 12:02:25;;;;;;;15.33;7.00;;;0.50;99.90;;;;;;5051445;28;20454;-52
2021/01/12 12:04:51;;;;;;;14.03;7.40;;;0.40;99.90;;;;;;5051340;28;20454;-52
2021/01/12 12:07:19;;;;;;;15.70;7.73;;;0.50;99.90;;;;;;5053117;28;20830;-52
2021/01/12 12:09:46;;;;;;;16.40;6.97;;;0.40;99.90;;;;;;5052363;28;20450;-51
2021/01/12 12:12:13;;;;;;;15.37;7.20;;;0.40;99.90;;;;;;5052154;28;20466;-51
2021/01/12 12:14:40;;;;;;;16.10;7.30;;;0.40;99.90;;;;;;5051929;28;21116;-51
2021/01/12 12:17:07;;;;;;;10.30;5.43;;;0.40;99.90;;;;;;5051765;28;20455;-51
2021/01/12 12:19:34;;;;;;;16.20;6.40;;;0.70;99.90;;;;;;5051144;28;20893;-51
2021/01/12 12:22:01;;;;;;;12.40;6.37;;;0.60;99.90;;;;;;5051602;28;20509;-51
2021/01/12 12:24:29;;;;;;;14.17;6.27;;;0.60;99.90;;;;;;5051560;28;20539;-52
2021/01/12 12:27:00;;;;;;;14.40;6.67;;;0.60;99.90;;;;;;5051494;28;20493;-54
2021/01/12 12:29:26;;;;;;;16.83;7.17;;;0.60;99.90;;;;;;5051632;28;20461;-51
2021/01/12 12:31:56;;;;;;;13.57;6.40;;;0.70;99.90;;;;;;5051322;28;20482;-51
2021/01/12 12:34:25;;;;;;;13.57;6.07;;;0.70;99.90;;;;;;5051526;28;20529;-51
2021/01/12 12:36:52;;;;;;;19.03;7.07;;;0.70;99.90;;;;;;5051568;28;20450;-51